sensor_id;sensor_type;location;lat;lon;timestamp;temperature;humidity
10294;DHT22;5192;50.328;7.610;2022-09-03T00:00:33;17.00;1.00
10294;DHT22;5192;50.328;7.610;2022-09-03T00:11:18;16.80;1.00
10294;DHT22;5192;50.328;7.610;2022-09-03T00:14:12;16.80;1.00
10294;DHT22;5192;50.328;7.610;2022-09-03T00:17:16;16.90;1.00
10294;DHT22;5192;50.328;7.610;2022-09-03T00:19:50;16.90;1.00
10294;DHT22;5192;50.328;7.610;2022-09-03T00:22:20;16.90;1.00
10294;DHT22;5192;50.328;7.610;2022-09-03T00:24:51;16.90;1.00
10294;DHT22;5192;50.328;7.610;2022-09-03T00:27:24;17.00;1.00
10294;DHT22;5192;50.328;7.610;2022-09-03T00:30:14;17.00;1.00
10294;DHT22;5192;50.328;7.610;2022-09-03T00:32:57;17.00;1.00
10294;DHT22;5192;50.328;7.610;2022-09-03T00:38:30;17.10;1.00
10294;DHT22;5192;50.328;7.610;2022-09-03T00:44:08;17.10;1.00
10294;DHT22;5192;50.328;7.610;2022-09-03T00:50:08;17.10;1.00
10294;DHT22;5192;50.328;7.610;2022-09-03T00:55:37;17.00;1.00
10294;DHT22;5192;50.328;7.610;2022-09-03T01:00:46;16.90;1.00
10294;DHT22;5192;50.328;7.610;2022-09-03T01:03:40;16.90;1.00
10294;DHT22;5192;50.328;7.610;2022-09-03T01:06:42;16.90;1.00
10294;DHT22;5192;50.328;7.610;2022-09-03T01:12:44;16.80;1.00
10294;DHT22;5192;50.328;7.610;2022-09-03T01:18:08;16.80;1.00
10294;DHT22;5192;50.328;7.610;2022-09-03T01:21:17;16.80;1.00
10294;DHT22;5192;50.328;7.610;2022-09-03T01:27:37;16.70;1.00
10294;DHT22;5192;50.328;7.610;2022-09-03T01:30:18;16.70;1.00
10294;DHT22;5192;50.328;7.610;2022-09-03T01:36:11;16.60;1.00
10294;DHT22;5192;50.328;7.610;2022-09-03T01:39:01;16.60;1.00
10294;DHT22;5192;50.328;7.610;2022-09-03T01:50:53;16.70;1.00
10294;DHT22;5192;50.328;7.610;2022-09-03T02:00:10;16.70;1.00
10294;DHT22;5192;50.328;7.610;2022-09-03T02:02:36;16.80;1.00
10294;DHT22;5192;50.328;7.610;2022-09-03T02:05:27;16.80;1.00
10294;DHT22;5192;50.328;7.610;2022-09-03T02:10:54;16.80;1.00
10294;DHT22;5192;50.328;7.610;2022-09-03T02:13:37;16.80;1.00
10294;DHT22;5192;50.328;7.610;2022-09-03T02:16:29;16.80;1.00
10294;DHT22;5192;50.328;7.610;2022-09-03T02:19:03;16.80;1.00
10294;DHT22;5192;50.328;7.610;2022-09-03T02:21:35;16.80;1.00
10294;DHT22;5192;50.328;7.610;2022-09-03T02:24:03;16.90;1.00
10294;DHT22;5192;50.328;7.610;2022-09-03T02:26:32;16.90;1.00
10294;DHT22;5192;50.328;7.610;2022-09-03T02:29:00;16.80;1.00
10294;DHT22;5192;50.328;7.610;2022-09-03T02:31:26;16.80;1.00
10294;DHT22;5192;50.328;7.610;2022-09-03T02:33:56;16.80;1.00
10294;DHT22;5192;50.328;7.610;2022-09-03T02:36:29;16.80;1.00
10294;DHT22;5192;50.328;7.610;2022-09-03T02:38:59;16.80;1.00
10294;DHT22;5192;50.328;7.610;2022-09-03T02:41:26;16.90;1.00
10294;DHT22;5192;50.328;7.610;2022-09-03T02:44:12;16.90;1.00
10294;DHT22;5192;50.328;7.610;2022-09-03T02:46:45;16.80;1.00
10294;DHT22;5192;50.328;7.610;2022-09-03T02:49:14;16.80;1.00
10294;DHT22;5192;50.328;7.610;2022-09-03T02:51:42;16.80;1.00
10294;DHT22;5192;50.328;7.610;2022-09-03T02:54:13;16.80;1.00
10294;DHT22;5192;50.328;7.610;2022-09-03T02:56:40;16.80;1.00
10294;DHT22;5192;50.328;7.610;2022-09-03T02:59:07;16.80;1.00
10294;DHT22;5192;50.328;7.610;2022-09-03T03:01:41;16.80;1.00
10294;DHT22;5192;50.328;7.610;2022-09-03T03:04:08;16.80;1.00
10294;DHT22;5192;50.328;7.610;2022-09-03T03:06:35;16.80;1.00
10294;DHT22;5192;50.328;7.610;2022-09-03T03:09:00;16.80;1.00
10294;DHT22;5192;50.328;7.610;2022-09-03T03:11:30;16.80;1.00
10294;DHT22;5192;50.328;7.610;2022-09-03T03:13:57;16.80;1.00
10294;DHT22;5192;50.328;7.610;2022-09-03T03:16:24;16.70;1.00
10294;DHT22;5192;50.328;7.610;2022-09-03T03:18:51;16.70;1.00
10294;DHT22;5192;50.328;7.610;2022-09-03T03:21:18;16.70;1.00
10294;DHT22;5192;50.328;7.610;2022-09-03T03:23:44;16.60;1.00
10294;DHT22;5192;50.328;7.610;2022-09-03T03:26:16;16.50;1.00
10294;DHT22;5192;50.328;7.610;2022-09-03T03:28:43;16.50;1.00
10294;DHT22;5192;50.328;7.610;2022-09-03T03:31:14;16.40;1.00
10294;DHT22;5192;50.328;7.610;2022-09-03T03:33:42;16.30;1.00
10294;DHT22;5192;50.328;7.610;2022-09-03T03:36:16;16.30;1.00
10294;DHT22;5192;50.328;7.610;2022-09-03T03:38:44;16.20;1.00
10294;DHT22;5192;50.328;7.610;2022-09-03T03:41:15;16.20;1.00
10294;DHT22;5192;50.328;7.610;2022-09-03T03:43:42;16.10;1.00
10294;DHT22;5192;50.328;7.610;2022-09-03T03:46:11;16.00;1.00
10294;DHT22;5192;50.328;7.610;2022-09-03T03:48:38;16.00;1.00
10294;DHT22;5192;50.328;7.610;2022-09-03T03:51:06;16.00;1.00
10294;DHT22;5192;50.328;7.610;2022-09-03T03:53:34;16.00;1.00
10294;DHT22;5192;50.328;7.610;2022-09-03T03:56:03;15.90;1.00
10294;DHT22;5192;50.328;7.610;2022-09-03T03:58:31;15.90;1.00
10294;DHT22;5192;50.328;7.610;2022-09-03T04:01:14;15.80;1.00
10294;DHT22;5192;50.328;7.610;2022-09-03T04:03:41;15.80;1.00
10294;DHT22;5192;50.328;7.610;2022-09-03T04:06:08;15.80;1.00
10294;DHT22;5192;50.328;7.610;2022-09-03T04:08:40;15.80;1.00
10294;DHT22;5192;50.328;7.610;2022-09-03T04:11:08;15.70;1.00
10294;DHT22;5192;50.328;7.610;2022-09-03T04:13:37;15.70;1.00
10294;DHT22;5192;50.328;7.610;2022-09-03T04:16:06;15.70;1.00
10294;DHT22;5192;50.328;7.610;2022-09-03T04:18:35;15.70;1.00
10294;DHT22;5192;50.328;7.610;2022-09-03T04:21:04;15.70;1.00
10294;DHT22;5192;50.328;7.610;2022-09-03T04:23:33;15.70;1.00
10294;DHT22;5192;50.328;7.610;2022-09-03T04:26:00;15.70;1.00
10294;DHT22;5192;50.328;7.610;2022-09-03T04:28:27;15.60;1.00
10294;DHT22;5192;50.328;7.610;2022-09-03T04:30:54;15.60;1.00
10294;DHT22;5192;50.328;7.610;2022-09-03T04:33:26;15.60;1.00
10294;DHT22;5192;50.328;7.610;2022-09-03T04:35:59;15.60;1.00
10294;DHT22;5192;50.328;7.610;2022-09-03T04:38:28;15.60;1.00
10294;DHT22;5192;50.328;7.610;2022-09-03T04:40:57;15.70;1.00
10294;DHT22;5192;50.328;7.610;2022-09-03T04:43:26;15.70;1.00
10294;DHT22;5192;50.328;7.610;2022-09-03T04:45:58;15.80;1.00
10294;DHT22;5192;50.328;7.610;2022-09-03T04:48:25;15.80;1.00
10294;DHT22;5192;50.328;7.610;2022-09-03T04:50:51;15.80;1.00
10294;DHT22;5192;50.328;7.610;2022-09-03T04:53:17;15.80;1.00
10294;DHT22;5192;50.328;7.610;2022-09-03T04:55:44;15.80;1.00
10294;DHT22;5192;50.328;7.610;2022-09-03T04:58:11;15.80;1.00
10294;DHT22;5192;50.328;7.610;2022-09-03T05:00:38;15.80;1.00
10294;DHT22;5192;50.328;7.610;2022-09-03T05:03:04;15.80;1.00
10294;DHT22;5192;50.328;7.610;2022-09-03T05:05:34;15.80;1.00
10294;DHT22;5192;50.328;7.610;2022-09-03T05:08:01;15.90;1.00
10294;DHT22;5192;50.328;7.610;2022-09-03T05:10:30;15.90;1.00
10294;DHT22;5192;50.328;7.610;2022-09-03T05:13:06;16.00;1.00
10294;DHT22;5192;50.328;7.610;2022-09-03T05:15:34;16.10;1.00
10294;DHT22;5192;50.328;7.610;2022-09-03T05:18:01;16.10;1.00
10294;DHT22;5192;50.328;7.610;2022-09-03T05:20:30;16.20;1.00
10294;DHT22;5192;50.328;7.610;2022-09-03T05:23:01;16.20;1.00
10294;DHT22;5192;50.328;7.610;2022-09-03T05:25:31;16.30;1.00
10294;DHT22;5192;50.328;7.610;2022-09-03T05:27:58;16.40;1.00
10294;DHT22;5192;50.328;7.610;2022-09-03T05:30:24;16.40;1.00
10294;DHT22;5192;50.328;7.610;2022-09-03T05:32:51;16.40;1.00
10294;DHT22;5192;50.328;7.610;2022-09-03T05:35:19;16.50;1.00
10294;DHT22;5192;50.328;7.610;2022-09-03T05:37:45;16.50;1.00
10294;DHT22;5192;50.328;7.610;2022-09-03T05:40:12;16.50;1.00
10294;DHT22;5192;50.328;7.610;2022-09-03T05:42:39;16.50;1.00
10294;DHT22;5192;50.328;7.610;2022-09-03T05:45:07;16.60;1.00
10294;DHT22;5192;50.328;7.610;2022-09-03T05:47:37;16.60;1.00
10294;DHT22;5192;50.328;7.610;2022-09-03T05:50:06;16.60;1.00
10294;DHT22;5192;50.328;7.610;2022-09-03T05:52:34;16.50;1.00
10294;DHT22;5192;50.328;7.610;2022-09-03T05:55:01;16.50;1.00
10294;DHT22;5192;50.328;7.610;2022-09-03T05:57:28;16.40;1.00
10294;DHT22;5192;50.328;7.610;2022-09-03T05:59:55;16.40;1.00
10294;DHT22;5192;50.328;7.610;2022-09-03T06:02:21;16.40;1.00
10294;DHT22;5192;50.328;7.610;2022-09-03T06:04:49;16.40;1.00
10294;DHT22;5192;50.328;7.610;2022-09-03T06:07:15;16.40;1.00
10294;DHT22;5192;50.328;7.610;2022-09-03T06:09:42;16.40;1.00
10294;DHT22;5192;50.328;7.610;2022-09-03T06:12:09;16.40;1.00
10294;DHT22;5192;50.328;7.610;2022-09-03T06:14:37;16.40;1.00
10294;DHT22;5192;50.328;7.610;2022-09-03T06:17:03;16.40;1.00
10294;DHT22;5192;50.328;7.610;2022-09-03T06:19:31;16.30;1.00
10294;DHT22;5192;50.328;7.610;2022-09-03T06:21:58;16.20;1.00
10294;DHT22;5192;50.328;7.610;2022-09-03T06:24:24;16.20;1.00
10294;DHT22;5192;50.328;7.610;2022-09-03T06:26:54;16.10;1.00
10294;DHT22;5192;50.328;7.610;2022-09-03T06:29:21;16.00;1.00
10294;DHT22;5192;50.328;7.610;2022-09-03T06:31:48;16.00;1.00
10294;DHT22;5192;50.328;7.610;2022-09-03T06:34:16;16.00;1.00
10294;DHT22;5192;50.328;7.610;2022-09-03T06:36:45;16.00;1.00
10294;DHT22;5192;50.328;7.610;2022-09-03T06:39:13;16.00;1.00
10294;DHT22;5192;50.328;7.610;2022-09-03T06:41:40;16.00;1.00
10294;DHT22;5192;50.328;7.610;2022-09-03T06:44:06;16.00;1.00
10294;DHT22;5192;50.328;7.610;2022-09-03T06:46:38;16.10;1.00
10294;DHT22;5192;50.328;7.610;2022-09-03T06:49:08;16.10;1.00
10294;DHT22;5192;50.328;7.610;2022-09-03T06:51:35;16.20;1.00
10294;DHT22;5192;50.328;7.610;2022-09-03T06:54:07;16.20;1.00
10294;DHT22;5192;50.328;7.610;2022-09-03T06:56:34;16.30;1.00
10294;DHT22;5192;50.328;7.610;2022-09-03T06:59:10;16.40;1.00
10294;DHT22;5192;50.328;7.610;2022-09-03T07:01:39;16.40;1.00
10294;DHT22;5192;50.328;7.610;2022-09-03T07:04:08;16.50;1.00
10294;DHT22;5192;50.328;7.610;2022-09-03T07:06:39;16.60;1.00
10294;DHT22;5192;50.328;7.610;2022-09-03T07:09:09;16.60;1.00
10294;DHT22;5192;50.328;7.610;2022-09-03T07:11:38;16.70;1.00
10294;DHT22;5192;50.328;7.610;2022-09-03T07:14:11;16.80;1.00
10294;DHT22;5192;50.328;7.610;2022-09-03T07:16:38;16.80;1.00
10294;DHT22;5192;50.328;7.610;2022-09-03T07:19:06;16.80;1.00
10294;DHT22;5192;50.328;7.610;2022-09-03T07:21:35;16.80;1.00
10294;DHT22;5192;50.328;7.610;2022-09-03T07:24:07;16.80;1.00
10294;DHT22;5192;50.328;7.610;2022-09-03T07:26:36;16.80;1.00
10294;DHT22;5192;50.328;7.610;2022-09-03T07:29:03;16.80;1.00
10294;DHT22;5192;50.328;7.610;2022-09-03T07:31:34;16.80;1.00
10294;DHT22;5192;50.328;7.610;2022-09-03T07:34:07;16.80;1.00
10294;DHT22;5192;50.328;7.610;2022-09-03T07:36:53;16.80;1.00
10294;DHT22;5192;50.328;7.610;2022-09-03T07:39:21;16.80;1.00
10294;DHT22;5192;50.328;7.610;2022-09-03T07:41:47;16.80;1.00
10294;DHT22;5192;50.328;7.610;2022-09-03T07:44:16;16.80;1.00
10294;DHT22;5192;50.328;7.610;2022-09-03T07:46:44;16.80;1.00
10294;DHT22;5192;50.328;7.610;2022-09-03T07:49:14;16.90;1.00
10294;DHT22;5192;50.328;7.610;2022-09-03T07:51:42;17.00;1.00
10294;DHT22;5192;50.328;7.610;2022-09-03T07:54:09;17.10;1.00
10294;DHT22;5192;50.328;7.610;2022-09-03T07:56:38;17.20;1.00
10294;DHT22;5192;50.328;7.610;2022-09-03T07:59:06;17.40;1.00
10294;DHT22;5192;50.328;7.610;2022-09-03T08:01:34;17.40;1.00
10294;DHT22;5192;50.328;7.610;2022-09-03T08:04:00;17.60;1.00
10294;DHT22;5192;50.328;7.610;2022-09-03T08:06:29;17.70;1.00
10294;DHT22;5192;50.328;7.610;2022-09-03T08:09:04;17.90;1.00
10294;DHT22;5192;50.328;7.610;2022-09-03T08:11:30;17.90;1.00
10294;DHT22;5192;50.328;7.610;2022-09-03T08:14:04;18.00;1.00
10294;DHT22;5192;50.328;7.610;2022-09-03T08:16:37;18.00;1.00
10294;DHT22;5192;50.328;7.610;2022-09-03T08:19:04;18.10;1.00
10294;DHT22;5192;50.328;7.610;2022-09-03T08:21:31;18.10;1.00
10294;DHT22;5192;50.328;7.610;2022-09-03T08:23:58;18.00;1.00
10294;DHT22;5192;50.328;7.610;2022-09-03T08:26:33;18.00;1.00
10294;DHT22;5192;50.328;7.610;2022-09-03T08:29:02;17.80;1.00
10294;DHT22;5192;50.328;7.610;2022-09-03T08:31:32;17.70;1.00
10294;DHT22;5192;50.328;7.610;2022-09-03T08:33:59;17.60;1.00
10294;DHT22;5192;50.328;7.610;2022-09-03T08:36:30;17.30;1.00
10294;DHT22;5192;50.328;7.610;2022-09-03T08:38:59;17.20;18.80
10294;DHT22;5192;50.328;7.610;2022-09-03T08:42:03;17.10;30.00
10294;DHT22;5192;50.328;7.610;2022-09-03T08:44:57;17.00;99.90
10294;DHT22;5192;50.328;7.610;2022-09-03T08:47:43;16.90;99.90
10294;DHT22;5192;50.328;7.610;2022-09-03T08:50:30;16.70;99.90
10294;DHT22;5192;50.328;7.610;2022-09-03T08:53:11;16.80;99.90
10294;DHT22;5192;50.328;7.610;2022-09-03T08:55:59;16.80;99.90
10294;DHT22;5192;50.328;7.610;2022-09-03T08:58:31;16.80;99.90
10294;DHT22;5192;50.328;7.610;2022-09-03T09:10:26;16.70;99.90
10294;DHT22;5192;50.328;7.610;2022-09-03T09:21:26;17.50;99.90
10294;DHT22;5192;50.328;7.610;2022-09-03T09:24:09;17.70;99.90
10294;DHT22;5192;50.328;7.610;2022-09-03T09:26:40;17.70;99.90
10294;DHT22;5192;50.328;7.610;2022-09-03T09:29:11;17.50;99.90
10294;DHT22;5192;50.328;7.610;2022-09-03T09:31:39;17.50;99.90
10294;DHT22;5192;50.328;7.610;2022-09-03T09:34:10;17.70;99.90
10294;DHT22;5192;50.328;7.610;2022-09-03T09:36:49;17.60;99.90
10294;DHT22;5192;50.328;7.610;2022-09-03T09:39:16;17.80;99.90
10294;DHT22;5192;50.328;7.610;2022-09-03T09:41:59;18.00;99.90
10294;DHT22;5192;50.328;7.610;2022-09-03T09:44:43;18.20;99.90
10294;DHT22;5192;50.328;7.610;2022-09-03T09:50:15;18.50;99.90
10294;DHT22;5192;50.328;7.610;2022-09-03T09:52:43;18.50;99.90
10294;DHT22;5192;50.328;7.610;2022-09-03T09:55:16;18.50;99.90
10294;DHT22;5192;50.328;7.610;2022-09-03T09:57:42;18.60;99.90
10294;DHT22;5192;50.328;7.610;2022-09-03T10:00:14;18.70;99.90
10294;DHT22;5192;50.328;7.610;2022-09-03T10:02:47;18.80;99.90
10294;DHT22;5192;50.328;7.610;2022-09-03T10:05:26;18.80;99.90
10294;DHT22;5192;50.328;7.610;2022-09-03T10:08:00;19.00;99.90
10294;DHT22;5192;50.328;7.610;2022-09-03T10:10:28;18.80;99.90
10294;DHT22;5192;50.328;7.610;2022-09-03T10:13:21;18.90;99.90
10294;DHT22;5192;50.328;7.610;2022-09-03T10:16:19;19.00;99.90
10294;DHT22;5192;50.328;7.610;2022-09-03T10:19:12;19.00;99.90
10294;DHT22;5192;50.328;7.610;2022-09-03T10:21:56;19.00;99.90
10294;DHT22;5192;50.328;7.610;2022-09-03T10:27:17;19.00;99.90
10294;DHT22;5192;50.328;7.610;2022-09-03T10:29:45;19.00;99.90
10294;DHT22;5192;50.328;7.610;2022-09-03T10:32:35;19.10;99.90
10294;DHT22;5192;50.328;7.610;2022-09-03T10:35:31;19.00;99.90
10294;DHT22;5192;50.328;7.610;2022-09-03T10:38:19;19.10;99.90
10294;DHT22;5192;50.328;7.610;2022-09-03T11:05:44;21.30;94.70
10294;DHT22;5192;50.328;7.610;2022-09-03T11:08:48;21.30;93.50
10294;DHT22;5192;50.328;7.610;2022-09-03T11:11:45;21.30;81.50
10294;DHT22;5192;50.328;7.610;2022-09-03T11:14:15;21.30;77.20
10294;DHT22;5192;50.328;7.610;2022-09-03T11:16:57;21.40;86.30
10294;DHT22;5192;50.328;7.610;2022-09-03T11:19:38;21.80;72.30
10294;DHT22;5192;50.328;7.610;2022-09-03T11:22:08;22.30;78.80
10294;DHT22;5192;50.328;7.610;2022-09-03T11:24:37;22.80;30.30
10294;DHT22;5192;50.328;7.610;2022-09-03T11:28:09;22.60;22.00
10294;DHT22;5192;50.328;7.610;2022-09-03T11:30:13;22.80;18.20
10294;DHT22;5192;50.328;7.610;2022-09-03T11:32:44;22.60;18.60
10294;DHT22;5192;50.328;7.610;2022-09-03T11:35:27;22.70;20.50
10294;DHT22;5192;50.328;7.610;2022-09-03T11:40:34;22.60;8.30
10294;DHT22;5192;50.328;7.610;2022-09-03T11:43:12;23.00;10.50
10294;DHT22;5192;50.328;7.610;2022-09-03T11:45:41;23.40;1.00
10294;DHT22;5192;50.328;7.610;2022-09-03T11:51:14;23.50;1.00
10294;DHT22;5192;50.328;7.610;2022-09-03T11:56:50;23.70;1.00
10294;DHT22;5192;50.328;7.610;2022-09-03T11:59:34;23.70;1.00
10294;DHT22;5192;50.328;7.610;2022-09-03T12:04:56;23.70;1.00
10294;DHT22;5192;50.328;7.610;2022-09-03T12:18:47;24.90;1.00
10294;DHT22;5192;50.328;7.610;2022-09-03T12:21:19;25.00;1.00
10294;DHT22;5192;50.328;7.610;2022-09-03T12:23:47;25.10;1.00
10294;DHT22;5192;50.328;7.610;2022-09-03T12:26:22;24.70;1.00
10294;DHT22;5192;50.328;7.610;2022-09-03T12:28:59;24.80;1.00
10294;DHT22;5192;50.328;7.610;2022-09-03T12:31:30;24.90;1.00
10294;DHT22;5192;50.328;7.610;2022-09-03T12:34:02;24.70;1.00
10294;DHT22;5192;50.328;7.610;2022-09-03T12:36:49;24.90;1.00
10294;DHT22;5192;50.328;7.610;2022-09-03T12:42:06;25.00;1.00
10294;DHT22;5192;50.328;7.610;2022-09-03T12:44:39;25.30;1.00
10294;DHT22;5192;50.328;7.610;2022-09-03T12:47:13;25.40;1.00
10294;DHT22;5192;50.328;7.610;2022-09-03T12:49:43;25.60;1.00
10294;DHT22;5192;50.328;7.610;2022-09-03T12:52:37;25.70;1.00
10294;DHT22;5192;50.328;7.610;2022-09-03T12:58:04;25.10;1.00
10294;DHT22;5192;50.328;7.610;2022-09-03T13:06:17;26.20;1.00
10294;DHT22;5192;50.328;7.610;2022-09-03T13:09:03;26.30;1.00
10294;DHT22;5192;50.328;7.610;2022-09-03T13:11:33;26.50;1.00
10294;DHT22;5192;50.328;7.610;2022-09-03T13:14:13;26.50;1.00
10294;DHT22;5192;50.328;7.610;2022-09-03T13:33:42;26.00;1.00
10294;DHT22;5192;50.328;7.610;2022-09-03T13:42:19;27.30;1.00
10294;DHT22;5192;50.328;7.610;2022-09-03T14:03:30;27.80;1.00
10294;DHT22;5192;50.328;7.610;2022-09-03T14:11:53;27.80;1.00
10294;DHT22;5192;50.328;7.610;2022-09-03T14:20:53;26.30;1.00
10294;DHT22;5192;50.328;7.610;2022-09-03T14:26:34;26.80;1.00
10294;DHT22;5192;50.328;7.610;2022-09-03T14:37:59;26.40;1.00
10294;DHT22;5192;50.328;7.610;2022-09-03T15:07:32;24.50;1.00
10294;DHT22;5192;50.328;7.610;2022-09-03T15:10:02;23.90;1.00
10294;DHT22;5192;50.328;7.610;2022-09-03T15:12:47;23.40;1.00
10294;DHT22;5192;50.328;7.610;2022-09-03T15:15:21;23.30;1.00
10294;DHT22;5192;50.328;7.610;2022-09-03T15:29:03;22.40;99.90
10294;DHT22;5192;50.328;7.610;2022-09-03T15:31:56;22.20;99.90
10294;DHT22;5192;50.328;7.610;2022-09-03T15:35:28;22.00;99.90
10294;DHT22;5192;50.328;7.610;2022-09-03T15:37:47;21.70;99.90
10294;DHT22;5192;50.328;7.610;2022-09-03T15:40:24;21.30;99.90
10294;DHT22;5192;50.328;7.610;2022-09-03T15:42:56;21.10;99.90
10294;DHT22;5192;50.328;7.610;2022-09-03T15:48:35;20.70;99.90
10294;DHT22;5192;50.328;7.610;2022-09-03T15:51:11;20.50;99.90
10294;DHT22;5192;50.328;7.610;2022-09-03T15:53:48;20.30;99.90
10294;DHT22;5192;50.328;7.610;2022-09-03T15:56:33;20.20;99.90
10294;DHT22;5192;50.328;7.610;2022-09-03T15:59:19;20.00;99.90
10294;DHT22;5192;50.328;7.610;2022-09-03T16:02:09;19.90;99.90
10294;DHT22;5192;50.328;7.610;2022-09-03T16:15:22;18.90;99.90
10294;DHT22;5192;50.328;7.610;2022-09-03T16:18:02;18.90;99.90
10294;DHT22;5192;50.328;7.610;2022-09-03T16:20:51;18.80;99.90
10294;DHT22;5192;50.328;7.610;2022-09-03T16:23:26;18.70;99.90
10294;DHT22;5192;50.328;7.610;2022-09-03T16:29:14;18.60;99.90
10294;DHT22;5192;50.328;7.610;2022-09-03T16:32:16;18.50;99.90
10294;DHT22;5192;50.328;7.610;2022-09-03T16:37:57;18.30;99.90
10294;DHT22;5192;50.328;7.610;2022-09-03T16:43:53;18.00;99.90
10294;DHT22;5192;50.328;7.610;2022-09-03T16:52:39;17.60;99.90
10294;DHT22;5192;50.328;7.610;2022-09-03T16:55:24;17.60;99.90
10294;DHT22;5192;50.328;7.610;2022-09-03T16:58:21;17.60;99.90
10294;DHT22;5192;50.328;7.610;2022-09-03T17:04:47;17.60;99.90
10294;DHT22;5192;50.328;7.610;2022-09-03T17:07:11;17.70;99.90
10294;DHT22;5192;50.328;7.610;2022-09-03T17:18:57;17.80;99.90
10294;DHT22;5192;50.328;7.610;2022-09-03T17:24:46;18.10;99.90
10294;DHT22;5192;50.328;7.610;2022-09-03T17:36:07;18.70;99.90
10294;DHT22;5192;50.328;7.610;2022-09-03T17:41:52;18.80;99.90
10294;DHT22;5192;50.328;7.610;2022-09-03T17:52:48;18.80;99.90
10294;DHT22;5192;50.328;7.610;2022-09-03T17:55:34;18.70;99.90
10294;DHT22;5192;50.328;7.610;2022-09-03T18:03:55;18.60;99.90
10294;DHT22;5192;50.328;7.610;2022-09-03T18:09:27;18.50;99.90
10294;DHT22;5192;50.328;7.610;2022-09-03T18:12:28;18.40;99.90
10294;DHT22;5192;50.328;7.610;2022-09-03T18:15:17;18.30;99.90
10294;DHT22;5192;50.328;7.610;2022-09-03T18:17:58;18.20;99.90
10294;DHT22;5192;50.328;7.610;2022-09-03T18:20:28;18.00;99.90
10294;DHT22;5192;50.328;7.610;2022-09-03T18:23:40;17.90;99.90
10294;DHT22;5192;50.328;7.610;2022-09-03T18:26:32;17.90;99.90
10294;DHT22;5192;50.328;7.610;2022-09-03T18:29:38;17.80;99.90
10294;DHT22;5192;50.328;7.610;2022-09-03T18:32:25;17.70;99.90
10294;DHT22;5192;50.328;7.610;2022-09-03T18:35:12;17.60;99.90
10294;DHT22;5192;50.328;7.610;2022-09-03T18:37:58;17.50;99.90
10294;DHT22;5192;50.328;7.610;2022-09-03T18:44:28;17.30;99.90
10294;DHT22;5192;50.328;7.610;2022-09-03T18:56:52;17.10;99.90
10294;DHT22;5192;50.328;7.610;2022-09-03T19:09:23;16.90;99.90
10294;DHT22;5192;50.328;7.610;2022-09-03T19:12:52;16.80;99.90
10294;DHT22;5192;50.328;7.610;2022-09-03T19:19:13;16.80;99.90
10294;DHT22;5192;50.328;7.610;2022-09-03T19:22:12;16.70;99.90
10294;DHT22;5192;50.328;7.610;2022-09-03T19:25:12;16.70;99.90
10294;DHT22;5192;50.328;7.610;2022-09-03T19:40:26;16.40;99.90
10294;DHT22;5192;50.328;7.610;2022-09-03T19:52:21;16.30;99.90
10294;DHT22;5192;50.328;7.610;2022-09-03T19:55:11;16.20;99.90
10294;DHT22;5192;50.328;7.610;2022-09-03T19:58:00;16.20;99.90
10294;DHT22;5192;50.328;7.610;2022-09-03T20:00:46;16.20;99.90
10294;DHT22;5192;50.328;7.610;2022-09-03T20:03:32;16.20;99.90
10294;DHT22;5192;50.328;7.610;2022-09-03T20:06:17;16.10;99.90
10294;DHT22;5192;50.328;7.610;2022-09-03T20:09:07;16.10;99.90
10294;DHT22;5192;50.328;7.610;2022-09-03T20:12:04;16.10;99.90
10294;DHT22;5192;50.328;7.610;2022-09-03T20:14:34;16.10;99.90
10294;DHT22;5192;50.328;7.610;2022-09-03T20:31:25;15.90;99.90
10294;DHT22;5192;50.328;7.610;2022-09-03T20:43:00;15.90;99.90
10294;DHT22;5192;50.328;7.610;2022-09-03T20:51:21;16.00;99.90
10294;DHT22;5192;50.328;7.610;2022-09-03T20:54:57;16.00;99.90
10294;DHT22;5192;50.328;7.610;2022-09-03T21:00:15;15.90;99.90
10294;DHT22;5192;50.328;7.610;2022-09-03T21:10:51;16.00;99.90
10294;DHT22;5192;50.328;7.610;2022-09-03T21:18:49;16.20;99.90
10294;DHT22;5192;50.328;7.610;2022-09-03T21:21:30;16.20;99.90
10294;DHT22;5192;50.328;7.610;2022-09-03T21:24:39;16.30;99.90
10294;DHT22;5192;50.328;7.610;2022-09-03T21:27:18;16.40;99.90
10294;DHT22;5192;50.328;7.610;2022-09-03T21:35:35;16.40;99.90
10294;DHT22;5192;50.328;7.610;2022-09-03T21:38:33;16.40;99.90
10294;DHT22;5192;50.328;7.610;2022-09-03T21:41:28;16.40;99.90
10294;DHT22;5192;50.328;7.610;2022-09-03T21:44:16;16.40;99.90
10294;DHT22;5192;50.328;7.610;2022-09-03T21:46:58;16.40;99.90
10294;DHT22;5192;50.328;7.610;2022-09-03T21:53:40;16.30;99.90
10294;DHT22;5192;50.328;7.610;2022-09-03T21:59:04;16.20;99.90
10294;DHT22;5192;50.328;7.610;2022-09-03T22:02:08;16.10;99.90
10294;DHT22;5192;50.328;7.610;2022-09-03T22:04:42;16.00;99.90
10294;DHT22;5192;50.328;7.610;2022-09-03T22:10:17;16.00;99.90
10294;DHT22;5192;50.328;7.610;2022-09-03T22:15:36;15.90;99.90
10294;DHT22;5192;50.328;7.610;2022-09-03T22:18:27;15.80;99.90
10294;DHT22;5192;50.328;7.610;2022-09-03T22:33:09;15.70;99.90
10294;DHT22;5192;50.328;7.610;2022-09-03T22:36:13;15.70;99.90
10294;DHT22;5192;50.328;7.610;2022-09-03T22:41:52;15.70;99.90
10294;DHT22;5192;50.328;7.610;2022-09-03T22:44:53;15.70;99.90
10294;DHT22;5192;50.328;7.610;2022-09-03T22:56:10;15.70;99.90
10294;DHT22;5192;50.328;7.610;2022-09-03T23:01:48;15.70;99.90
10294;DHT22;5192;50.328;7.610;2022-09-03T23:04:45;15.70;99.90
10294;DHT22;5192;50.328;7.610;2022-09-03T23:10:09;15.60;99.90
10294;DHT22;5192;50.328;7.610;2022-09-03T23:15:27;15.70;99.90
10294;DHT22;5192;50.328;7.610;2022-09-03T23:18:14;15.70;99.90
10294;DHT22;5192;50.328;7.610;2022-09-03T23:20:56;15.70;99.90
10294;DHT22;5192;50.328;7.610;2022-09-03T23:23:29;15.60;99.90
10294;DHT22;5192;50.328;7.610;2022-09-03T23:26:17;15.60;99.90
10294;DHT22;5192;50.328;7.610;2022-09-03T23:29:10;15.60;99.90
10294;DHT22;5192;50.328;7.610;2022-09-03T23:31:38;15.60;99.90
10294;DHT22;5192;50.328;7.610;2022-09-03T23:34:07;15.60;99.90
10294;DHT22;5192;50.328;7.610;2022-09-03T23:37:03;15.60;99.90
10294;DHT22;5192;50.328;7.610;2022-09-03T23:39:43;15.50;99.90
10294;DHT22;5192;50.328;7.610;2022-09-03T23:47:41;15.50;99.90
10294;DHT22;5192;50.328;7.610;2022-09-03T23:59:14;15.40;99.90
